Time;durP1;ratioP1;P1;durP2;ratioP2;P2;SDS_P1;SDS_P2;PMS_P1;PMS_P2;Temp;Humidity;BMP_temperature;BMP_pressure;BME280_temperature;BME280_humidity;BME280_pressure;Samples;Min_cycle;Max_cycle;Signal;HPM_P1;HPM_P2
2022/11/30 07:28:53;;;;;;;2.40;1.40;;;;;;;-2.42;100.00;102228.48;1738636;79;83152;-84
2022/11/30 07:31:37;;;;;;;3.42;1.87;;;;;;;-2.34;100.00;102225.05;1741239;81;21002;-85
2022/11/30 07:34:22;;;;;;;10.93;2.42;;;;;;;-2.27;100.00;102217.27;1668015;83;21014;-85
2022/11/30 07:37:07;;;;;;;3.65;1.62;;;;;;;-2.22;100.00;102221.17;1690540;84;21090;-85
2022/11/30 07:39:52;;;;;;;2.35;1.55;;;;;;;-2.21;100.00;102222.00;1704505;82;20996;-85
2022/11/30 07:42:36;;;;;;;5.60;2.22;;;;;;;-2.21;100.00;102209.45;1744212;81;21050;-84
2022/11/30 07:45:21;;;;;;;5.70;2.15;;;;;;;-2.21;100.00;102218.82;1740131;80;21033;-84
2022/11/30 07:48:08;;;;;;;3.77;1.90;;;;;;;-2.22;100.00;102214.47;1742973;80;21034;-86
2022/11/30 07:50:53;;;;;;;3.02;1.52;;;;;;;-2.20;100.00;102203.11;1758380;80;21041;-85
2022/11/30 07:53:38;;;;;;;3.17;1.65;;;;;;;-2.16;100.00;102209.00;1746471;80;21487;-86
2022/11/30 07:56:23;;;;;;;2.47;1.87;;;;;;;-2.13;100.00;102204.66;1725647;80;21461;-84
2022/11/30 07:59:08;;;;;;;3.80;1.90;;;;;;;-2.07;100.00;102211.27;1736211;80;21003;-85
2022/11/30 08:01:52;;;;;;;7.28;1.98;;;;;;;-2.05;100.00;102206.10;1746998;80;21513;-85
2022/11/30 08:04:37;;;;;;;8.68;2.05;;;;;;;-2.00;100.00;102206.98;1759091;80;21065;-85
2022/11/30 08:07:22;;;;;;;4.17;1.90;;;;;;;-1.97;100.00;102209.35;1739470;81;21042;-86
2022/11/30 08:10:08;;;;;;;3.90;1.98;;;;;;;-1.93;100.00;102212.05;1700393;81;21043;-85
2022/11/30 08:12:53;;;;;;;3.80;1.40;;;;;;;-1.87;100.00;102211.45;1695574;83;21015;-85
2022/11/30 08:15:38;;;;;;;4.70;1.90;;;;;;;-1.79;100.00;102206.14;1698628;83;21014;-89
2022/11/30 08:18:23;;;;;;;5.33;1.85;;;;;;;-1.73;100.00;102210.06;1697469;83;21077;-85
2022/11/30 08:21:09;;;;;;;5.92;1.90;;;;;;;-1.68;100.00;102220.30;1687830;83;21587;-85
2022/11/30 08:23:55;;;;;;;4.75;2.22;;;;;;;-1.69;100.00;102208.73;1738499;81;21156;-84
2022/11/30 08:26:40;;;;;;;2.75;1.45;;;;;;;-1.75;100.00;102216.91;1745645;81;20987;-85
2022/11/30 08:29:25;;;;;;;4.33;1.70;;;;;;;-1.82;100.00;102203.78;1742564;80;20999;-89
2022/11/30 08:32:09;;;;;;;2.37;1.27;;;;;;;-1.86;100.00;102205.08;1755512;81;21034;-85
2022/11/30 08:34:54;;;;;;;3.45;1.77;;;;;;;-1.90;100.00;102210.42;1733483;81;20990;-84
2022/11/30 08:37:39;;;;;;;2.42;1.37;;;;;;;-1.91;100.00;102202.02;1739212;81;21065;-84
2022/11/30 08:40:23;;;;;;;6.10;1.55;;;;;;;-1.87;100.00;102187.33;1736711;80;20998;-88
2022/11/30 08:43:08;;;;;;;6.35;2.10;;;;;;;-1.83;100.00;102190.05;1738186;80;20984;-89
2022/11/30 08:45:53;;;;;;;2.70;1.55;;;;;;;-1.76;100.00;102190.25;1746537;80;20987;-84
2022/11/30 08:48:37;;;;;;;3.10;2.05;;;;;;;-1.64;100.00;102186.83;1745995;80;21015;-85
2022/11/30 08:51:22;;;;;;;2.27;1.30;;;;;;;-1.61;100.00;102181.15;1752980;80;20991;-85
2022/11/30 08:54:06;;;;;;;4.78;2.00;;;;;;;-1.54;100.00;102179.52;1744846;81;21088;-84
2022/11/30 08:56:51;;;;;;;4.72;2.55;;;;;;;-1.48;100.00;102172.21;1754726;80;20992;-88
2022/11/30 08:59:36;;;;;;;7.67;2.62;;;;;;;-1.40;100.00;102181.64;1742446;80;21014;-89
2022/11/30 09:02:21;;;;;;;10.88;3.75;;;;;;;-1.33;100.00;102174.64;1751747;80;21083;-88
2022/11/30 09:05:06;;;;;;;6.05;1.75;;;;;;;-1.29;100.00;102168.45;1747704;80;20986;-88
2022/11/30 09:07:51;;;;;;;4.95;1.75;;;;;;;-1.25;100.00;102170.33;1761995;81;21062;-89
2022/11/30 09:10:36;;;;;;;5.22;1.92;;;;;;;-1.18;100.00;102164.67;1758699;80;21096;-87
2022/11/30 09:13:20;;;;;;;2.10;1.32;;;;;;;-1.21;100.00;102167.17;1736177;80;21184;-89
2022/11/30 09:16:06;;;;;;;7.03;1.80;;;;;;;-1.22;100.00;102180.22;1737524;80;20982;-89
2022/11/30 09:18:51;;;;;;;5.05;1.80;;;;;;;-1.18;100.00;102179.42;1741171;81;21045;-87
2022/11/30 09:21:35;;;;;;;3.45;1.40;;;;;;;-1.14;100.00;102177.61;1748365;81;20990;-88
2022/11/30 09:24:20;;;;;;;6.08;1.70;;;;;;;-1.18;100.00;102168.69;1739585;80;20983;-87
2022/11/30 09:27:05;;;;;;;8.33;2.25;;;;;;;-1.22;100.00;102168.66;1692714;84;21114;-89
2022/11/30 09:29:49;;;;;;;2.50;1.42;;;;;;;-1.25;100.00;102175.69;1758036;81;20965;-88
2022/11/30 09:32:33;;;;;;;3.70;2.30;;;;;;;-1.24;100.00;102166.13;1743056;80;21038;-88
2022/11/30 09:35:18;;;;;;;2.35;1.45;;;;;;;-1.25;100.00;102166.30;1745328;80;20999;-84
2022/11/30 09:38:03;;;;;;;5.12;2.25;;;;;;;-1.33;100.00;102159.89;1750646;81;21050;-88
2022/11/30 09:40:55;;;;;;;8.03;2.35;;;;;;;-1.37;100.00;102165.22;1740017;80;21036;-89
2022/11/30 09:44:24;;;;;;;3.58;2.17;;;;;;;-1.41;100.00;102153.62;1744378;80;21057;-84
2022/11/30 09:47:43;;;;;;;6.55;1.75;;;;;;;-1.46;100.00;102148.73;1694436;82;20975;-89
2022/11/30 09:50:30;;;;;;;3.80;1.80;;;;;;;-1.45;100.00;102150.43;1683265;83;21642;-87
2022/11/30 09:53:29;;;;;;;6.30;1.47;;;;;;;-1.41;100.00;102149.13;1679953;83;21193;-84
2022/11/30 09:56:29;;;;;;;6.17;2.20;;;;;;;-1.38;100.00;102147.46;1677879;83;21046;-87
2022/11/30 09:59:20;;;;;;;7.47;2.02;;;;;;;-1.39;100.00;102155.66;1698586;82;21419;-86
2022/11/30 10:02:14;;;;;;;5.65;1.90;;;;;;;-1.36;100.00;102142.78;1699216;82;21500;-88
2022/11/30 19:11:05;;;;;;;6.58;2.08;;;;;;;-2.51;100.00;102172.33;1777445;78;21014;-78
2022/11/30 19:13:55;;;;;;;2.20;1.50;;;;;;;-2.52;100.00;102174.64;1786214;78;20989;-78
2022/11/30 19:16:39;;;;;;;3.20;1.47;;;;;;;-2.55;100.00;102180.30;1793849;78;21017;-78
2022/11/30 19:19:24;;;;;;;4.28;2.05;;;;;;;-2.56;100.00;102174.62;1785766;78;21034;-78
2022/11/30 19:22:08;;;;;;;5.15;1.98;;;;;;;-2.55;100.00;102177.62;1791660;78;20998;-78
2022/11/30 19:24:52;;;;;;;10.18;2.00;;;;;;;-2.57;100.00;102180.47;1773708;78;21082;-78
2022/11/30 19:27:37;;;;;;;2.90;2.20;;;;;;;-2.61;100.00;102181.25;1784457;78;21041;-78
2022/11/30 19:30:21;;;;;;;2.05;1.45;;;;;;;-2.62;100.00;102186.27;1783992;78;20992;-77
2022/11/30 19:33:06;;;;;;;3.15;1.80;;;;;;;-2.67;100.00;102184.55;1787132;78;21505;-78
2022/11/30 19:35:51;;;;;;;4.62;1.37;;;;;;;-2.68;100.00;102184.69;1794171;78;21127;-78
2022/11/30 19:38:36;;;;;;;4.97;1.55;;;;;;;-2.69;100.00;102186.52;1784156;78;20976;-78
2022/11/30 19:41:21;;;;;;;2.65;1.25;;;;;;;-2.70;100.00;102201.38;1764198;78;21037;-78
2022/11/30 19:44:05;;;;;;;1.77;1.22;;;;;;;-2.75;100.00;102187.11;1790744;78;20981;-78
2022/11/30 19:46:50;;;;;;;3.30;2.10;;;;;;;-2.78;100.00;102190.09;1792817;78;21011;-78
2022/11/30 19:49:34;;;;;;;2.67;1.42;;;;;;;-2.79;100.00;102192.90;1806868;78;21076;-78
2022/11/30 19:52:19;;;;;;;5.08;1.45;;;;;;;-2.82;100.00;102189.56;1774733;80;21045;-78
2022/11/30 19:55:05;;;;;;;2.35;0.88;;;;;;;-2.82;100.00;102199.39;1763986;80;21023;-78
2022/11/30 19:57:50;;;;;;;4.87;2.02;;;;;;;-2.83;100.00;102197.22;1741206;80;21009;-78
2022/11/30 20:00:34;;;;;;;7.65;1.82;;;;;;;-2.82;100.00;102187.35;1732949;80;21440;-78
2022/11/30 20:03:19;;;;;;;2.47;0.98;;;;;;;-2.81;100.00;102195.75;1743068;80;21036;-78
2022/11/30 20:06:04;;;;;;;2.33;1.15;;;;;;;-2.82;100.00;102190.03;1742479;81;21625;-78
2022/11/30 20:08:49;;;;;;;8.18;1.07;;;;;;;-2.81;100.00;102191.23;1709846;81;21008;-77
2022/11/30 20:11:34;;;;;;;3.40;1.47;;;;;;;-2.79;100.00;102189.75;1769652;80;20914;-78
2022/11/30 20:14:21;;;;;;;8.28;2.02;;;;;;;-2.75;100.00;102198.31;1739114;81;21003;-78
2022/11/30 20:17:05;;;;;;;2.65;1.02;;;;;;;-2.76;100.00;102201.48;1717992;81;21006;-78
2022/11/30 20:19:49;;;;;;;4.15;1.42;;;;;;;-2.75;100.00;102192.45;1747984;80;21029;-78
2022/11/30 20:22:33;;;;;;;2.37;1.80;;;;;;;-2.75;100.00;102200.48;1748426;80;21163;-78
2022/11/30 20:25:20;;;;;;;4.85;1.82;;;;;;;-2.76;100.00;102205.50;1717695;81;21016;-78
2022/11/30 20:28:04;;;;;;;2.87;1.17;;;;;;;-2.80;100.00;102204.10;1726381;82;20993;-78
2022/11/30 20:30:48;;;;;;;8.48;1.87;;;;;;;-2.80;100.00;102208.12;1724682;80;21484;-78
2022/11/30 20:33:35;;;;;;;2.40;1.10;;;;;;;-2.82;100.00;102207.42;1732563;81;21057;-78
2022/11/30 20:36:20;;;;;;;2.15;1.00;;;;;;;-2.86;100.00;102212.23;1740054;80;21066;-78
2022/11/30 20:39:05;;;;;;;5.03;1.47;;;;;;;-2.86;100.00;102200.70;1743342;81;21132;-78
2022/11/30 20:41:51;;;;;;;3.52;1.67;;;;;;;-2.83;100.00;102211.94;1752582;80;21039;-79
2022/11/30 20:44:35;;;;;;;1.90;1.55;;;;;;;-2.80;100.00;102216.14;1732728;81;21017;-78
2022/11/30 20:51:15;;;;;;;1.77;1.20;;;;;;;-2.75;100.00;102214.37;1828913;77;28999;-79
2022/11/30 20:54:02;;;;;;;5.30;1.45;;;;;;;-2.78;100.00;102220.02;1750186;80;21097;-79
2022/11/30 20:56:47;;;;;;;0.90;0.90;;;;;;;-2.78;100.00;102215.51;1738472;79;21033;-76
2022/11/30 20:59:33;;;;;;;1.60;1.10;;;;;;;-2.76;100.00;102221.56;1742979;81;20955;-77
2022/11/30 21:02:17;;;;;;;3.37;1.40;;;;;;;-2.76;100.00;102212.20;1730442;80;21053;-77
2022/11/30 21:05:02;;;;;;;1.27;0.90;;;;;;;-2.77;100.00;102219.86;1701007;82;21071;-77
2022/11/30 21:07:47;;;;;;;4.50;1.70;;;;;;;-2.78;100.00;102218.19;1701382;82;21066;-77
2022/11/30 21:10:32;;;;;;;2.10;0.93;;;;;;;-2.79;100.00;102228.55;1731038;80;21482;-77
2022/11/30 21:13:17;;;;;;;3.60;1.32;;;;;;;-2.78;100.00;102216.84;1705207;82;21573;-77
2022/11/30 21:16:05;;;;;;;1.20;0.90;;;;;;;-2.77;100.00;102227.88;1692904;83;21489;-77
2022/11/30 21:18:52;;;;;;;1.05;0.90;;;;;;;-2.78;100.00;102228.89;1734029;80;20995;-77
2022/11/30 21:21:38;;;;;;;2.98;1.30;;;;;;;-2.78;100.00;102227.55;1729536;80;21547;-77
